sensor_id;sensor_type;location;lat;lon;timestamp;P1;durP1;ratioP1;P2;durP2;ratioP2
56429;SDS011;42332;52.136;20.666;2023-04-01T00:01:17;25.40;;;13.18;;
56429;SDS011;42332;52.136;20.666;2023-04-01T00:03:43;28.95;;;11.65;;
56429;SDS011;42332;52.136;20.666;2023-04-01T00:06:09;27.00;;;12.05;;
56429;SDS011;42332;52.136;20.666;2023-04-01T00:08:37;25.33;;;13.10;;
56429;SDS011;42332;52.136;20.666;2023-04-01T00:11:03;28.95;;;12.40;;
56429;SDS011;42332;52.136;20.666;2023-04-01T00:13:28;29.23;;;11.95;;
56429;SDS011;42332;52.136;20.666;2023-04-01T00:15:54;29.70;;;13.95;;
56429;SDS011;42332;52.136;20.666;2023-04-01T00:18:20;28.13;;;13.43;;
56429;SDS011;42332;52.136;20.666;2023-04-01T00:20:47;24.50;;;12.55;;
56429;SDS011;42332;52.136;20.666;2023-04-01T00:23:14;27.40;;;12.93;;
56429;SDS011;42332;52.136;20.666;2023-04-01T00:25:40;32.05;;;12.88;;
56429;SDS011;42332;52.136;20.666;2023-04-01T00:28:05;26.92;;;12.82;;
56429;SDS011;42332;52.136;20.666;2023-04-01T00:30:30;30.23;;;12.35;;
56429;SDS011;42332;52.136;20.666;2023-04-01T00:32:56;30.17;;;12.60;;
56429;SDS011;42332;52.136;20.666;2023-04-01T00:35:21;27.10;;;13.43;;
56429;SDS011;42332;52.136;20.666;2023-04-01T00:37:47;29.80;;;12.95;;
56429;SDS011;42332;52.136;20.666;2023-04-01T00:40:22;29.77;;;13.70;;
56429;SDS011;42332;52.136;20.666;2023-04-01T00:43:15;30.45;;;13.13;;
56429;SDS011;42332;52.136;20.666;2023-04-01T00:45:47;29.83;;;13.75;;
56429;SDS011;42332;52.136;20.666;2023-04-01T00:48:14;28.38;;;13.43;;
56429;SDS011;42332;52.136;20.666;2023-04-01T00:50:44;28.92;;;13.82;;
56429;SDS011;42332;52.136;20.666;2023-04-01T00:53:11;31.48;;;13.07;;
56429;SDS011;42332;52.136;20.666;2023-04-01T00:55:37;29.10;;;13.50;;
56429;SDS011;42332;52.136;20.666;2023-04-01T00:58:05;31.27;;;14.13;;
56429;SDS011;42332;52.136;20.666;2023-04-01T01:00:32;33.03;;;13.55;;
56429;SDS011;42332;52.136;20.666;2023-04-01T01:02:59;29.88;;;12.45;;
56429;SDS011;42332;52.136;20.666;2023-04-01T01:05:52;31.73;;;14.00;;
56429;SDS011;42332;52.136;20.666;2023-04-01T01:16:47;26.95;;;12.10;;
56429;SDS011;42332;52.136;20.666;2023-04-01T01:27:59;31.95;;;14.13;;
56429;SDS011;42332;52.136;20.666;2023-04-01T01:35:40;29.05;;;13.43;;
56429;SDS011;42332;52.136;20.666;2023-04-01T01:38:10;31.55;;;13.25;;
56429;SDS011;42332;52.136;20.666;2023-04-01T01:40:39;28.65;;;14.35;;
56429;SDS011;42332;52.136;20.666;2023-04-01T01:43:08;29.45;;;15.02;;
56429;SDS011;42332;52.136;20.666;2023-04-01T01:45:36;26.88;;;13.18;;
56429;SDS011;42332;52.136;20.666;2023-04-01T01:48:04;30.98;;;15.13;;
56429;SDS011;42332;52.136;20.666;2023-04-01T01:50:32;32.35;;;13.98;;
56429;SDS011;42332;52.136;20.666;2023-04-01T01:53:02;32.40;;;14.85;;
56429;SDS011;42332;52.136;20.666;2023-04-01T01:55:30;28.20;;;13.82;;
56429;SDS011;42332;52.136;20.666;2023-04-01T01:57:57;27.90;;;14.57;;
56429;SDS011;42332;52.136;20.666;2023-04-01T02:00:24;30.52;;;14.93;;
56429;SDS011;42332;52.136;20.666;2023-04-01T02:02:50;27.75;;;14.18;;
56429;SDS011;42332;52.136;20.666;2023-04-01T02:05:20;35.28;;;14.55;;
56429;SDS011;42332;52.136;20.666;2023-04-01T02:07:48;30.67;;;14.88;;
56429;SDS011;42332;52.136;20.666;2023-04-01T02:10:19;25.15;;;13.80;;
56429;SDS011;42332;52.136;20.666;2023-04-01T02:12:46;34.92;;;14.98;;
56429;SDS011;42332;52.136;20.666;2023-04-01T02:15:12;35.03;;;15.13;;
56429;SDS011;42332;52.136;20.666;2023-04-01T02:17:40;37.55;;;16.17;;
56429;SDS011;42332;52.136;20.666;2023-04-01T02:20:13;30.85;;;15.02;;
56429;SDS011;42332;52.136;20.666;2023-04-01T02:22:41;33.85;;;16.45;;
56429;SDS011;42332;52.136;20.666;2023-04-01T02:25:12;35.38;;;15.50;;
56429;SDS011;42332;52.136;20.666;2023-04-01T02:27:41;29.05;;;15.27;;
56429;SDS011;42332;52.136;20.666;2023-04-01T02:30:08;35.67;;;15.23;;
56429;SDS011;42332;52.136;20.666;2023-04-01T02:32:34;29.75;;;14.50;;
56429;SDS011;42332;52.136;20.666;2023-04-01T02:35:00;31.17;;;13.55;;
56429;SDS011;42332;52.136;20.666;2023-04-01T02:37:28;30.63;;;14.45;;
56429;SDS011;42332;52.136;20.666;2023-04-01T02:39:53;31.50;;;15.50;;
56429;SDS011;42332;52.136;20.666;2023-04-01T02:42:19;35.00;;;16.08;;
56429;SDS011;42332;52.136;20.666;2023-04-01T02:44:44;37.17;;;15.73;;
56429;SDS011;42332;52.136;20.666;2023-04-01T02:47:10;29.95;;;14.77;;
56429;SDS011;42332;52.136;20.666;2023-04-01T02:49:35;32.00;;;16.08;;
56429;SDS011;42332;52.136;20.666;2023-04-01T02:52:00;33.95;;;15.73;;
56429;SDS011;42332;52.136;20.666;2023-04-01T02:54:26;30.70;;;16.42;;
56429;SDS011;42332;52.136;20.666;2023-04-01T02:56:51;36.17;;;15.45;;
56429;SDS011;42332;52.136;20.666;2023-04-01T02:59:16;35.53;;;15.32;;
56429;SDS011;42332;52.136;20.666;2023-04-01T03:01:42;35.92;;;14.13;;
56429;SDS011;42332;52.136;20.666;2023-04-01T03:04:07;28.90;;;15.02;;
56429;SDS011;42332;52.136;20.666;2023-04-01T03:06:32;34.30;;;16.27;;
56429;SDS011;42332;52.136;20.666;2023-04-01T03:08:58;32.08;;;15.57;;
56429;SDS011;42332;52.136;20.666;2023-04-01T03:11:23;30.88;;;16.92;;
56429;SDS011;42332;52.136;20.666;2023-04-01T03:13:49;29.38;;;14.40;;
56429;SDS011;42332;52.136;20.666;2023-04-01T03:16:14;32.50;;;14.43;;
56429;SDS011;42332;52.136;20.666;2023-04-01T03:18:40;35.70;;;15.35;;
56429;SDS011;42332;52.136;20.666;2023-04-01T03:21:15;39.88;;;14.40;;
56429;SDS011;42332;52.136;20.666;2023-04-01T03:23:41;29.45;;;14.02;;
56429;SDS011;42332;52.136;20.666;2023-04-01T03:26:07;24.95;;;12.02;;
56429;SDS011;42332;52.136;20.666;2023-04-01T03:28:32;26.83;;;12.63;;
56429;SDS011;42332;52.136;20.666;2023-04-01T03:30:58;27.92;;;14.65;;
56429;SDS011;42332;52.136;20.666;2023-04-01T03:33:23;28.48;;;13.88;;
56429;SDS011;42332;52.136;20.666;2023-04-01T03:35:48;29.65;;;13.95;;
56429;SDS011;42332;52.136;20.666;2023-04-01T03:38:16;32.08;;;13.90;;
56429;SDS011;42332;52.136;20.666;2023-04-01T03:40:42;26.52;;;12.73;;
56429;SDS011;42332;52.136;20.666;2023-04-01T03:43:08;23.80;;;12.40;;
56429;SDS011;42332;52.136;20.666;2023-04-01T03:45:34;25.55;;;12.48;;
56429;SDS011;42332;52.136;20.666;2023-04-01T03:48:00;26.70;;;11.50;;
56429;SDS011;42332;52.136;20.666;2023-04-01T03:50:25;25.52;;;11.57;;
56429;SDS011;42332;52.136;20.666;2023-04-01T03:52:51;25.02;;;11.32;;
56429;SDS011;42332;52.136;20.666;2023-04-01T03:55:16;22.85;;;10.93;;
56429;SDS011;42332;52.136;20.666;2023-04-01T03:57:42;21.35;;;10.60;;
56429;SDS011;42332;52.136;20.666;2023-04-01T04:00:08;21.60;;;9.85;;
56429;SDS011;42332;52.136;20.666;2023-04-01T04:02:34;21.15;;;10.02;;
56429;SDS011;42332;52.136;20.666;2023-04-01T04:05:00;26.33;;;10.95;;
56429;SDS011;42332;52.136;20.666;2023-04-01T04:07:25;22.30;;;10.20;;
56429;SDS011;42332;52.136;20.666;2023-04-01T04:09:52;14.13;;;6.45;;
56429;SDS011;42332;52.136;20.666;2023-04-01T04:12:17;26.35;;;9.20;;
56429;SDS011;42332;52.136;20.666;2023-04-01T04:14:42;19.13;;;7.40;;
56429;SDS011;42332;52.136;20.666;2023-04-01T04:17:09;22.85;;;9.07;;
56429;SDS011;42332;52.136;20.666;2023-04-01T04:19:40;16.38;;;7.85;;
56429;SDS011;42332;52.136;20.666;2023-04-01T04:22:06;18.83;;;9.05;;
56429;SDS011;42332;52.136;20.666;2023-04-01T04:24:33;20.70;;;9.13;;
56429;SDS011;42332;52.136;20.666;2023-04-01T04:26:59;19.33;;;8.90;;
56429;SDS011;42332;52.136;20.666;2023-04-01T04:29:24;20.83;;;10.18;;
56429;SDS011;42332;52.136;20.666;2023-04-01T04:31:50;19.60;;;8.55;;
56429;SDS011;42332;52.136;20.666;2023-04-01T04:34:15;21.20;;;10.05;;
56429;SDS011;42332;52.136;20.666;2023-04-01T04:36:41;17.35;;;9.40;;
56429;SDS011;42332;52.136;20.666;2023-04-01T04:39:06;20.30;;;9.57;;
56429;SDS011;42332;52.136;20.666;2023-04-01T04:41:31;18.95;;;9.77;;
56429;SDS011;42332;52.136;20.666;2023-04-01T04:43:57;20.02;;;9.30;;
56429;SDS011;42332;52.136;20.666;2023-04-01T04:46:24;18.95;;;8.35;;
56429;SDS011;42332;52.136;20.666;2023-04-01T04:48:50;15.98;;;7.80;;
56429;SDS011;42332;52.136;20.666;2023-04-01T04:51:16;21.30;;;9.75;;
56429;SDS011;42332;52.136;20.666;2023-04-01T04:53:43;21.33;;;8.98;;
56429;SDS011;42332;52.136;20.666;2023-04-01T04:56:08;19.65;;;9.82;;
56429;SDS011;42332;52.136;20.666;2023-04-01T04:58:34;19.20;;;9.23;;
56429;SDS011;42332;52.136;20.666;2023-04-01T05:01:05;18.83;;;8.45;;
56429;SDS011;42332;52.136;20.666;2023-04-01T05:03:37;21.63;;;9.38;;
56429;SDS011;42332;52.136;20.666;2023-04-01T05:06:02;17.92;;;8.80;;
56429;SDS011;42332;52.136;20.666;2023-04-01T05:08:28;22.15;;;9.18;;
56429;SDS011;42332;52.136;20.666;2023-04-01T05:10:54;19.73;;;9.35;;
56429;SDS011;42332;52.136;20.666;2023-04-01T05:13:19;23.20;;;10.75;;
56429;SDS011;42332;52.136;20.666;2023-04-01T05:15:45;22.92;;;10.70;;
56429;SDS011;42332;52.136;20.666;2023-04-01T05:18:10;23.00;;;9.98;;
56429;SDS011;42332;52.136;20.666;2023-04-01T05:20:36;23.67;;;10.82;;
56429;SDS011;42332;52.136;20.666;2023-04-01T05:23:01;23.08;;;10.55;;
56429;SDS011;42332;52.136;20.666;2023-04-01T05:25:27;23.45;;;10.85;;
56429;SDS011;42332;52.136;20.666;2023-04-01T05:27:52;21.42;;;9.80;;
56429;SDS011;42332;52.136;20.666;2023-04-01T05:30:18;22.83;;;11.00;;
56429;SDS011;42332;52.136;20.666;2023-04-01T05:32:43;20.98;;;10.55;;
56429;SDS011;42332;52.136;20.666;2023-04-01T05:35:09;27.00;;;12.27;;
56429;SDS011;42332;52.136;20.666;2023-04-01T05:37:35;29.00;;;12.55;;
56429;SDS011;42332;52.136;20.666;2023-04-01T05:40:02;28.23;;;12.02;;
56429;SDS011;42332;52.136;20.666;2023-04-01T05:42:27;26.05;;;13.07;;
56429;SDS011;42332;52.136;20.666;2023-04-01T05:44:53;27.65;;;13.60;;
56429;SDS011;42332;52.136;20.666;2023-04-01T05:47:18;29.05;;;13.63;;
56429;SDS011;42332;52.136;20.666;2023-04-01T05:49:43;29.90;;;12.55;;
56429;SDS011;42332;52.136;20.666;2023-04-01T05:52:09;30.95;;;14.48;;
56429;SDS011;42332;52.136;20.666;2023-04-01T05:54:34;30.35;;;13.35;;
56429;SDS011;42332;52.136;20.666;2023-04-01T05:57:00;27.98;;;13.45;;
56429;SDS011;42332;52.136;20.666;2023-04-01T05:59:25;31.30;;;13.50;;
56429;SDS011;42332;52.136;20.666;2023-04-01T06:01:50;30.13;;;13.80;;
56429;SDS011;42332;52.136;20.666;2023-04-01T06:04:17;26.23;;;13.80;;
56429;SDS011;42332;52.136;20.666;2023-04-01T06:06:43;34.03;;;15.27;;
56429;SDS011;42332;52.136;20.666;2023-04-01T06:11:46;31.55;;;14.93;;
56429;SDS011;42332;52.136;20.666;2023-04-01T06:19:54;30.27;;;12.98;;
56429;SDS011;42332;52.136;20.666;2023-04-01T06:28:03;29.50;;;11.80;;
56429;SDS011;42332;52.136;20.666;2023-04-01T06:31:15;23.67;;;13.15;;
56429;SDS011;42332;52.136;20.666;2023-04-01T06:33:46;28.13;;;14.80;;
56429;SDS011;42332;52.136;20.666;2023-04-01T06:45:28;36.42;;;15.82;;
56429;SDS011;42332;52.136;20.666;2023-04-01T06:56:02;31.95;;;16.00;;
56429;SDS011;42332;52.136;20.666;2023-04-01T06:58:36;30.45;;;15.35;;
56429;SDS011;42332;52.136;20.666;2023-04-01T07:01:06;34.60;;;16.17;;
56429;SDS011;42332;52.136;20.666;2023-04-01T07:03:38;32.17;;;16.17;;
56429;SDS011;42332;52.136;20.666;2023-04-01T07:06:08;31.73;;;16.08;;
56429;SDS011;42332;52.136;20.666;2023-04-01T07:08:36;31.10;;;15.45;;
56429;SDS011;42332;52.136;20.666;2023-04-01T07:13:39;33.30;;;16.55;;
56429;SDS011;42332;52.136;20.666;2023-04-01T07:16:27;36.03;;;17.45;;
56429;SDS011;42332;52.136;20.666;2023-04-01T07:18:57;36.20;;;16.58;;
56429;SDS011;42332;52.136;20.666;2023-04-01T07:21:45;30.80;;;14.93;;
56429;SDS011;42332;52.136;20.666;2023-04-01T07:24:15;38.90;;;15.30;;
56429;SDS011;42332;52.136;20.666;2023-04-01T07:26:44;27.23;;;14.00;;
56429;SDS011;42332;52.136;20.666;2023-04-01T07:29:11;33.53;;;16.70;;
56429;SDS011;42332;52.136;20.666;2023-04-01T07:34:09;33.65;;;15.85;;
56429;SDS011;42332;52.136;20.666;2023-04-01T07:36:40;34.72;;;18.30;;
56429;SDS011;42332;52.136;20.666;2023-04-01T07:47:47;38.83;;;16.63;;
56429;SDS011;42332;52.136;20.666;2023-04-01T07:50:32;36.40;;;16.70;;
56429;SDS011;42332;52.136;20.666;2023-04-01T07:53:13;47.55;;;18.88;;
56429;SDS011;42332;52.136;20.666;2023-04-01T07:55:48;35.17;;;18.42;;
56429;SDS011;42332;52.136;20.666;2023-04-01T07:58:33;37.65;;;17.38;;
56429;SDS011;42332;52.136;20.666;2023-04-01T08:06:56;34.95;;;15.88;;
56429;SDS011;42332;52.136;20.666;2023-04-01T08:12:00;36.70;;;17.98;;
56429;SDS011;42332;52.136;20.666;2023-04-01T08:17:05;32.42;;;15.52;;
56429;SDS011;42332;52.136;20.666;2023-04-01T08:22:14;28.98;;;15.20;;
56429;SDS011;42332;52.136;20.666;2023-04-01T08:24:44;34.47;;;16.13;;
56429;SDS011;42332;52.136;20.666;2023-04-01T08:27:26;27.48;;;15.27;;
56429;SDS011;42332;52.136;20.666;2023-04-01T08:32:31;30.00;;;14.55;;
56429;SDS011;42332;52.136;20.666;2023-04-01T08:50:23;30.75;;;12.18;;
56429;SDS011;42332;52.136;20.666;2023-04-01T08:55:22;11.55;;;5.40;;
56429;SDS011;42332;52.136;20.666;2023-04-01T09:01:05;11.35;;;4.40;;
56429;SDS011;42332;52.136;20.666;2023-04-01T09:06:20;8.88;;;3.65;;
56429;SDS011;42332;52.136;20.666;2023-04-01T09:20:19;9.93;;;4.35;;
56429;SDS011;42332;52.136;20.666;2023-04-01T09:28:33;8.27;;;4.35;;
56429;SDS011;42332;52.136;20.666;2023-04-01T09:36:38;10.23;;;4.53;;
56429;SDS011;42332;52.136;20.666;2023-04-01T09:44:32;16.52;;;5.72;;
56429;SDS011;42332;52.136;20.666;2023-04-01T09:49:51;11.40;;;5.30;;
56429;SDS011;42332;52.136;20.666;2023-04-01T10:00:39;10.30;;;5.28;;
56429;SDS011;42332;52.136;20.666;2023-04-01T10:11:49;46.08;;;26.98;;
56429;SDS011;42332;52.136;20.666;2023-04-01T10:17:15;33.38;;;19.48;;
56429;SDS011;42332;52.136;20.666;2023-04-01T10:36:52;18.17;;;8.70;;
56429;SDS011;42332;52.136;20.666;2023-04-01T10:56:10;9.57;;;4.78;;
56429;SDS011;42332;52.136;20.666;2023-04-01T11:01:45;8.73;;;4.15;;
56429;SDS011;42332;52.136;20.666;2023-04-01T11:18:19;10.02;;;4.90;;
56429;SDS011;42332;52.136;20.666;2023-04-01T11:21:21;13.02;;;4.57;;
56429;SDS011;42332;52.136;20.666;2023-04-01T11:29:49;13.10;;;6.70;;
56429;SDS011;42332;52.136;20.666;2023-04-01T11:32:43;13.32;;;5.57;;
56429;SDS011;42332;52.136;20.666;2023-04-01T11:38:15;13.10;;;6.18;;
56429;SDS011;42332;52.136;20.666;2023-04-01T12:00:53;13.30;;;5.45;;
56429;SDS011;42332;52.136;20.666;2023-04-01T12:03:36;12.60;;;6.00;;
56429;SDS011;42332;52.136;20.666;2023-04-01T12:19:53;10.52;;;5.15;;
56429;SDS011;42332;52.136;20.666;2023-04-01T12:38:50;16.98;;;8.45;;
56429;SDS011;42332;52.136;20.666;2023-04-01T12:44:31;16.77;;;8.52;;
56429;SDS011;42332;52.136;20.666;2023-04-01T13:00:25;13.55;;;6.53;;
56429;SDS011;42332;52.136;20.666;2023-04-01T13:03:18;10.43;;;5.43;;
56429;SDS011;42332;52.136;20.666;2023-04-01T13:23:19;13.55;;;6.10;;
56429;SDS011;42332;52.136;20.666;2023-04-01T13:42:09;7.45;;;2.58;;
56429;SDS011;42332;52.136;20.666;2023-04-01T13:47:53;4.22;;;1.80;;
56429;SDS011;42332;52.136;20.666;2023-04-01T13:53:51;6.88;;;2.80;;
56429;SDS011;42332;52.136;20.666;2023-04-01T13:56:42;5.57;;;2.08;;
56429;SDS011;42332;52.136;20.666;2023-04-01T14:05:23;6.38;;;1.90;;
56429;SDS011;42332;52.136;20.666;2023-04-01T14:10:43;4.18;;;1.75;;
56429;SDS011;42332;52.136;20.666;2023-04-01T14:14:20;5.00;;;1.85;;
56429;SDS011;42332;52.136;20.666;2023-04-01T14:30:20;5.38;;;2.53;;
56429;SDS011;42332;52.136;20.666;2023-04-01T14:36:09;9.97;;;2.90;;
56429;SDS011;42332;52.136;20.666;2023-04-01T14:39:15;6.43;;;2.53;;
56429;SDS011;42332;52.136;20.666;2023-04-01T14:41:58;4.75;;;2.03;;
56429;SDS011;42332;52.136;20.666;2023-04-01T14:47:44;6.10;;;2.47;;
56429;SDS011;42332;52.136;20.666;2023-04-01T14:52:40;4.10;;;1.98;;
56429;SDS011;42332;52.136;20.666;2023-04-01T14:55:17;7.53;;;3.08;;
56429;SDS011;42332;52.136;20.666;2023-04-01T14:58:07;6.10;;;2.92;;
56429;SDS011;42332;52.136;20.666;2023-04-01T15:08:23;4.85;;;1.92;;
56429;SDS011;42332;52.136;20.666;2023-04-01T15:11:00;5.47;;;1.98;;
56429;SDS011;42332;52.136;20.666;2023-04-01T15:14:10;6.57;;;2.10;;
56429;SDS011;42332;52.136;20.666;2023-04-01T15:17:00;4.82;;;1.80;;
56429;SDS011;42332;52.136;20.666;2023-04-01T15:22:15;5.60;;;2.33;;
56429;SDS011;42332;52.136;20.666;2023-04-01T15:24:46;5.45;;;2.42;;
56429;SDS011;42332;52.136;20.666;2023-04-01T15:33:26;5.72;;;2.70;;
56429;SDS011;42332;52.136;20.666;2023-04-01T15:39:02;13.32;;;6.07;;
56429;SDS011;42332;52.136;20.666;2023-04-01T15:41:36;8.68;;;3.58;;
56429;SDS011;42332;52.136;20.666;2023-04-01T15:52:48;9.57;;;3.97;;
56429;SDS011;42332;52.136;20.666;2023-04-01T16:00:25;7.68;;;3.05;;
56429;SDS011;42332;52.136;20.666;2023-04-01T16:11:17;10.68;;;2.47;;
56429;SDS011;42332;52.136;20.666;2023-04-01T16:17:11;7.63;;;2.92;;
56429;SDS011;42332;52.136;20.666;2023-04-01T16:22:38;6.90;;;2.97;;
56429;SDS011;42332;52.136;20.666;2023-04-01T16:25:26;7.65;;;3.75;;
56429;SDS011;42332;52.136;20.666;2023-04-01T16:28:13;7.95;;;3.70;;
56429;SDS011;42332;52.136;20.666;2023-04-01T16:31:02;8.85;;;3.15;;
56429;SDS011;42332;52.136;20.666;2023-04-01T16:42:28;15.02;;;5.35;;
56429;SDS011;42332;52.136;20.666;2023-04-01T16:44:56;8.75;;;3.97;;
56429;SDS011;42332;52.136;20.666;2023-04-01T16:47:40;8.63;;;4.10;;
56429;SDS011;42332;52.136;20.666;2023-04-01T16:50:22;12.10;;;4.30;;
56429;SDS011;42332;52.136;20.666;2023-04-01T16:55:42;15.70;;;6.82;;
56429;SDS011;42332;52.136;20.666;2023-04-01T16:58:19;22.85;;;10.60;;
56429;SDS011;42332;52.136;20.666;2023-04-01T17:00:48;7.95;;;3.72;;
56429;SDS011;42332;52.136;20.666;2023-04-01T17:03:28;8.60;;;3.58;;
56429;SDS011;42332;52.136;20.666;2023-04-01T17:11:19;7.38;;;2.78;;
56429;SDS011;42332;52.136;20.666;2023-04-01T17:16:45;14.60;;;6.65;;
56429;SDS011;42332;52.136;20.666;2023-04-01T17:19:21;55.10;;;21.73;;
56429;SDS011;42332;52.136;20.666;2023-04-01T17:35:32;7.60;;;3.92;;
56429;SDS011;42332;52.136;20.666;2023-04-01T17:40:52;11.68;;;4.22;;
56429;SDS011;42332;52.136;20.666;2023-04-01T17:48:46;6.70;;;3.65;;
56429;SDS011;42332;52.136;20.666;2023-04-01T17:53:53;9.10;;;4.80;;
56429;SDS011;42332;52.136;20.666;2023-04-01T17:56:28;8.33;;;4.30;;
56429;SDS011;42332;52.136;20.666;2023-04-01T17:59:16;7.65;;;3.65;;
56429;SDS011;42332;52.136;20.666;2023-04-01T18:01:59;9.30;;;3.83;;
56429;SDS011;42332;52.136;20.666;2023-04-01T18:05:12;5.63;;;2.85;;
56429;SDS011;42332;52.136;20.666;2023-04-01T18:07:44;11.88;;;4.40;;
56429;SDS011;42332;52.136;20.666;2023-04-01T18:13:09;10.43;;;6.22;;
56429;SDS011;42332;52.136;20.666;2023-04-01T18:18:37;8.52;;;3.65;;
56429;SDS011;42332;52.136;20.666;2023-04-01T18:21:32;7.72;;;3.53;;
56429;SDS011;42332;52.136;20.666;2023-04-01T18:30:00;9.30;;;4.35;;
56429;SDS011;42332;52.136;20.666;2023-04-01T18:32:37;7.93;;;3.75;;
56429;SDS011;42332;52.136;20.666;2023-04-01T18:38:04;9.90;;;4.80;;
56429;SDS011;42332;52.136;20.666;2023-04-01T18:40:37;8.60;;;4.07;;
56429;SDS011;42332;52.136;20.666;2023-04-01T18:46:16;11.20;;;6.32;;
56429;SDS011;42332;52.136;20.666;2023-04-01T18:48:51;9.38;;;4.43;;
56429;SDS011;42332;52.136;20.666;2023-04-01T18:51:25;9.07;;;3.70;;
56429;SDS011;42332;52.136;20.666;2023-04-01T18:54:12;16.75;;;7.55;;
56429;SDS011;42332;52.136;20.666;2023-04-01T18:57:15;12.90;;;5.47;;
56429;SDS011;42332;52.136;20.666;2023-04-01T18:59:42;11.82;;;5.75;;
56429;SDS011;42332;52.136;20.666;2023-04-01T19:04:57;9.35;;;4.75;;
56429;SDS011;42332;52.136;20.666;2023-04-01T19:15:39;7.90;;;3.72;;
56429;SDS011;42332;52.136;20.666;2023-04-01T19:18:18;10.82;;;4.93;;
56429;SDS011;42332;52.136;20.666;2023-04-01T19:20:52;11.50;;;4.68;;
56429;SDS011;42332;52.136;20.666;2023-04-01T19:26:11;11.73;;;5.72;;
56429;SDS011;42332;52.136;20.666;2023-04-01T19:34:50;12.75;;;4.85;;
56429;SDS011;42332;52.136;20.666;2023-04-01T19:37:25;10.57;;;5.03;;
56429;SDS011;42332;52.136;20.666;2023-04-01T19:56:57;25.65;;;9.25;;
56429;SDS011;42332;52.136;20.666;2023-04-01T20:04:53;10.43;;;5.70;;
56429;SDS011;42332;52.136;20.666;2023-04-01T20:07:25;11.48;;;5.25;;
56429;SDS011;42332;52.136;20.666;2023-04-01T20:12:47;14.32;;;8.15;;
56429;SDS011;42332;52.136;20.666;2023-04-01T20:17:56;11.23;;;4.88;;
56429;SDS011;42332;52.136;20.666;2023-04-01T20:20:29;11.48;;;5.15;;
56429;SDS011;42332;52.136;20.666;2023-04-01T20:25:33;9.55;;;4.80;;
56429;SDS011;42332;52.136;20.666;2023-04-01T20:28:13;8.32;;;4.13;;
56429;SDS011;42332;52.136;20.666;2023-04-01T20:39:14;13.45;;;7.47;;
56429;SDS011;42332;52.136;20.666;2023-04-01T20:41:55;11.70;;;6.82;;
56429;SDS011;42332;52.136;20.666;2023-04-01T20:44:46;11.45;;;6.05;;
56429;SDS011;42332;52.136;20.666;2023-04-01T20:47:40;15.18;;;6.47;;
56429;SDS011;42332;52.136;20.666;2023-04-01T20:50:27;12.40;;;6.43;;
56429;SDS011;42332;52.136;20.666;2023-04-01T20:52:56;14.75;;;5.35;;
56429;SDS011;42332;52.136;20.666;2023-04-01T20:55:36;10.27;;;5.00;;
56429;SDS011;42332;52.136;20.666;2023-04-01T21:14:54;11.10;;;4.82;;
56429;SDS011;42332;52.136;20.666;2023-04-01T21:20:39;9.80;;;4.70;;
56429;SDS011;42332;52.136;20.666;2023-04-01T21:22:51;11.20;;;4.53;;
56429;SDS011;42332;52.136;20.666;2023-04-01T21:25:46;9.18;;;4.40;;
56429;SDS011;42332;52.136;20.666;2023-04-01T21:42:12;9.43;;;5.18;;
56429;SDS011;42332;52.136;20.666;2023-04-01T21:50:43;10.75;;;5.22;;
56429;SDS011;42332;52.136;20.666;2023-04-01T22:04:52;8.15;;;3.67;;
56429;SDS011;42332;52.136;20.666;2023-04-01T22:07:40;7.57;;;3.35;;
56429;SDS011;42332;52.136;20.666;2023-04-01T22:12:52;6.78;;;2.97;;
56429;SDS011;42332;52.136;20.666;2023-04-01T22:18:41;7.80;;;3.50;;
56429;SDS011;42332;52.136;20.666;2023-04-01T22:21:20;6.78;;;3.35;;
56429;SDS011;42332;52.136;20.666;2023-04-01T22:29:17;6.45;;;3.42;;
56429;SDS011;42332;52.136;20.666;2023-04-01T22:34:28;8.00;;;3.72;;
56429;SDS011;42332;52.136;20.666;2023-04-01T22:39:33;10.77;;;4.13;;
56429;SDS011;42332;52.136;20.666;2023-04-01T22:47:37;9.50;;;4.70;;
56429;SDS011;42332;52.136;20.666;2023-04-01T22:50:19;9.00;;;4.07;;
56429;SDS011;42332;52.136;20.666;2023-04-01T22:56:09;6.95;;;3.42;;
56429;SDS011;42332;52.136;20.666;2023-04-01T22:58:42;10.02;;;3.67;;
56429;SDS011;42332;52.136;20.666;2023-04-01T23:01:16;8.70;;;3.53;;
56429;SDS011;42332;52.136;20.666;2023-04-01T23:03:46;7.30;;;3.72;;
56429;SDS011;42332;52.136;20.666;2023-04-01T23:06:35;6.63;;;2.80;;
56429;SDS011;42332;52.136;20.666;2023-04-01T23:11:49;12.48;;;4.75;;
56429;SDS011;42332;52.136;20.666;2023-04-01T23:16:50;8.90;;;3.47;;
56429;SDS011;42332;52.136;20.666;2023-04-01T23:19:23;8.15;;;2.95;;
56429;SDS011;42332;52.136;20.666;2023-04-01T23:22:02;7.70;;;3.42;;
56429;SDS011;42332;52.136;20.666;2023-04-01T23:24:37;8.70;;;2.83;;
56429;SDS011;42332;52.136;20.666;2023-04-01T23:29:41;8.80;;;3.83;;
56429;SDS011;42332;52.136;20.666;2023-04-01T23:32:18;7.47;;;3.10;;
56429;SDS011;42332;52.136;20.666;2023-04-01T23:34:51;11.02;;;3.67;;
56429;SDS011;42332;52.136;20.666;2023-04-01T23:37:23;10.13;;;4.40;;
56429;SDS011;42332;52.136;20.666;2023-04-01T23:39:50;13.95;;;6.00;;
56429;SDS011;42332;52.136;20.666;2023-04-01T23:42:32;11.90;;;5.50;;
56429;SDS011;42332;52.136;20.666;2023-04-01T23:45:04;12.65;;;4.95;;
56429;SDS011;42332;52.136;20.666;2023-04-01T23:47:34;15.52;;;6.75;;
56429;SDS011;42332;52.136;20.666;2023-04-01T23:50:12;9.73;;;4.32;;
56429;SDS011;42332;52.136;20.666;2023-04-01T23:52:46;9.73;;;4.32;;
56429;SDS011;42332;52.136;20.666;2023-04-01T23:55:14;8.38;;;4.18;;
56429;SDS011;42332;52.136;20.666;2023-04-01T23:58:00;11.23;;;4.93;;
